sensor_id;sensor_type;location;lat;lon;timestamp;P1;durP1;ratioP1;P2;durP2;ratioP2
65831;SDS011;52593;42.648;23.332;2022-07-06T00:01:43;19.30;;;11.40;;
65831;SDS011;52593;42.648;23.332;2022-07-06T00:04:09;16.05;;;11.18;;
65831;SDS011;52593;42.648;23.332;2022-07-06T00:06:35;16.87;;;11.43;;
65831;SDS011;52593;42.648;23.332;2022-07-06T00:09:00;18.77;;;11.73;;
65831;SDS011;52593;42.648;23.332;2022-07-06T00:11:27;18.17;;;11.80;;
65831;SDS011;52593;42.648;23.332;2022-07-06T00:13:52;18.63;;;12.30;;
65831;SDS011;52593;42.648;23.332;2022-07-06T00:16:18;18.40;;;11.47;;
65831;SDS011;52593;42.648;23.332;2022-07-06T00:18:44;17.77;;;11.80;;
65831;SDS011;52593;42.648;23.332;2022-07-06T00:21:10;18.90;;;11.02;;
65831;SDS011;52593;42.648;23.332;2022-07-06T00:23:36;18.47;;;12.07;;
65831;SDS011;52593;42.648;23.332;2022-07-06T00:26:01;18.70;;;11.87;;
65831;SDS011;52593;42.648;23.332;2022-07-06T00:28:27;19.23;;;11.52;;
65831;SDS011;52593;42.648;23.332;2022-07-06T00:30:53;17.93;;;11.23;;
65831;SDS011;52593;42.648;23.332;2022-07-06T00:33:18;16.58;;;11.38;;
65831;SDS011;52593;42.648;23.332;2022-07-06T00:35:44;17.77;;;12.00;;
65831;SDS011;52593;42.648;23.332;2022-07-06T00:38:09;16.40;;;10.45;;
65831;SDS011;52593;42.648;23.332;2022-07-06T00:40:35;17.17;;;11.77;;
65831;SDS011;52593;42.648;23.332;2022-07-06T00:43:00;18.77;;;12.37;;
65831;SDS011;52593;42.648;23.332;2022-07-06T00:45:26;20.33;;;11.33;;
65831;SDS011;52593;42.648;23.332;2022-07-06T00:47:51;18.15;;;11.18;;
65831;SDS011;52593;42.648;23.332;2022-07-06T00:50:17;19.60;;;12.13;;
65831;SDS011;52593;42.648;23.332;2022-07-06T00:52:46;17.77;;;11.65;;
65831;SDS011;52593;42.648;23.332;2022-07-06T00:55:13;16.67;;;9.37;;
65831;SDS011;52593;42.648;23.332;2022-07-06T00:57:40;18.02;;;11.35;;
65831;SDS011;52593;42.648;23.332;2022-07-06T01:00:10;19.13;;;10.82;;
65831;SDS011;52593;42.648;23.332;2022-07-06T01:02:37;18.73;;;10.70;;
65831;SDS011;52593;42.648;23.332;2022-07-06T01:05:04;21.27;;;10.63;;
65831;SDS011;52593;42.648;23.332;2022-07-06T01:07:31;25.10;;;12.85;;
65831;SDS011;52593;42.648;23.332;2022-07-06T01:09:56;23.02;;;11.77;;
65831;SDS011;52593;42.648;23.332;2022-07-06T01:12:22;21.25;;;12.48;;
65831;SDS011;52593;42.648;23.332;2022-07-06T01:14:49;22.27;;;12.00;;
65831;SDS011;52593;42.648;23.332;2022-07-06T01:17:15;19.75;;;12.18;;
65831;SDS011;52593;42.648;23.332;2022-07-06T01:19:41;20.38;;;12.02;;
65831;SDS011;52593;42.648;23.332;2022-07-06T01:22:06;20.40;;;11.70;;
65831;SDS011;52593;42.648;23.332;2022-07-06T01:24:34;19.63;;;11.23;;
65831;SDS011;52593;42.648;23.332;2022-07-06T01:27:00;19.80;;;11.10;;
65831;SDS011;52593;42.648;23.332;2022-07-06T01:29:26;19.23;;;11.90;;
65831;SDS011;52593;42.648;23.332;2022-07-06T01:31:51;20.33;;;11.43;;
65831;SDS011;52593;42.648;23.332;2022-07-06T01:34:17;20.70;;;12.00;;
65831;SDS011;52593;42.648;23.332;2022-07-06T01:36:43;22.83;;;11.82;;
65831;SDS011;52593;42.648;23.332;2022-07-06T01:39:09;17.67;;;11.35;;
65831;SDS011;52593;42.648;23.332;2022-07-06T01:41:35;21.45;;;12.23;;
65831;SDS011;52593;42.648;23.332;2022-07-06T01:44:00;21.40;;;12.13;;
65831;SDS011;52593;42.648;23.332;2022-07-06T01:46:26;21.63;;;12.90;;
65831;SDS011;52593;42.648;23.332;2022-07-06T01:48:52;23.20;;;13.17;;
65831;SDS011;52593;42.648;23.332;2022-07-06T01:51:17;23.73;;;12.98;;
65831;SDS011;52593;42.648;23.332;2022-07-06T01:53:43;24.23;;;12.97;;
65831;SDS011;52593;42.648;23.332;2022-07-06T01:56:09;21.30;;;12.75;;
65831;SDS011;52593;42.648;23.332;2022-07-06T01:58:36;21.35;;;12.27;;
65831;SDS011;52593;42.648;23.332;2022-07-06T02:01:07;19.60;;;11.15;;
65831;SDS011;52593;42.648;23.332;2022-07-06T02:03:43;20.60;;;12.50;;
65831;SDS011;52593;42.648;23.332;2022-07-06T02:06:09;20.98;;;12.18;;
65831;SDS011;52593;42.648;23.332;2022-07-06T02:08:37;18.98;;;10.57;;
65831;SDS011;52593;42.648;23.332;2022-07-06T02:11:04;22.30;;;11.48;;
65831;SDS011;52593;42.648;23.332;2022-07-06T02:13:31;19.08;;;10.60;;
65831;SDS011;52593;42.648;23.332;2022-07-06T02:15:57;16.03;;;9.50;;
65831;SDS011;52593;42.648;23.332;2022-07-06T02:18:22;17.13;;;10.07;;
65831;SDS011;52593;42.648;23.332;2022-07-06T02:20:48;15.60;;;9.37;;
65831;SDS011;52593;42.648;23.332;2022-07-06T02:23:13;15.33;;;8.80;;
65831;SDS011;52593;42.648;23.332;2022-07-06T02:25:38;15.43;;;9.07;;
65831;SDS011;52593;42.648;23.332;2022-07-06T02:28:04;18.23;;;9.27;;
65831;SDS011;52593;42.648;23.332;2022-07-06T02:30:29;15.03;;;8.07;;
65831;SDS011;52593;42.648;23.332;2022-07-06T02:32:55;15.93;;;9.13;;
65831;SDS011;52593;42.648;23.332;2022-07-06T02:35:20;15.40;;;8.97;;
65831;SDS011;52593;42.648;23.332;2022-07-06T02:37:46;15.03;;;9.47;;
65831;SDS011;52593;42.648;23.332;2022-07-06T02:40:11;14.90;;;9.40;;
65831;SDS011;52593;42.648;23.332;2022-07-06T02:42:37;16.83;;;9.57;;
65831;SDS011;52593;42.648;23.332;2022-07-06T02:45:03;15.80;;;8.70;;
65831;SDS011;52593;42.648;23.332;2022-07-06T02:47:29;16.67;;;9.93;;
65831;SDS011;52593;42.648;23.332;2022-07-06T02:49:54;18.03;;;9.97;;
65831;SDS011;52593;42.648;23.332;2022-07-06T02:52:20;14.40;;;9.13;;
65831;SDS011;52593;42.648;23.332;2022-07-06T02:54:46;17.23;;;9.23;;
65831;SDS011;52593;42.648;23.332;2022-07-06T02:57:11;15.03;;;8.63;;
65831;SDS011;52593;42.648;23.332;2022-07-06T02:59:36;16.95;;;9.25;;
65831;SDS011;52593;42.648;23.332;2022-07-06T03:02:03;15.67;;;9.97;;
65831;SDS011;52593;42.648;23.332;2022-07-06T03:04:29;20.77;;;10.40;;
65831;SDS011;52593;42.648;23.332;2022-07-06T03:06:54;16.60;;;9.47;;
65831;SDS011;52593;42.648;23.332;2022-07-06T03:09:20;19.10;;;9.97;;
65831;SDS011;52593;42.648;23.332;2022-07-06T03:11:45;17.90;;;9.83;;
65831;SDS011;52593;42.648;23.332;2022-07-06T03:14:10;17.83;;;9.57;;
65831;SDS011;52593;42.648;23.332;2022-07-06T03:16:36;16.40;;;9.57;;
65831;SDS011;52593;42.648;23.332;2022-07-06T03:19:01;15.90;;;9.90;;
65831;SDS011;52593;42.648;23.332;2022-07-06T03:21:27;15.75;;;9.30;;
65831;SDS011;52593;42.648;23.332;2022-07-06T03:23:52;16.27;;;9.43;;
65831;SDS011;52593;42.648;23.332;2022-07-06T03:26:18;17.00;;;9.67;;
65831;SDS011;52593;42.648;23.332;2022-07-06T03:28:43;16.57;;;9.67;;
65831;SDS011;52593;42.648;23.332;2022-07-06T03:31:08;16.02;;;9.52;;
65831;SDS011;52593;42.648;23.332;2022-07-06T03:33:34;18.43;;;9.40;;
65831;SDS011;52593;42.648;23.332;2022-07-06T03:35:59;16.07;;;10.03;;
65831;SDS011;52593;42.648;23.332;2022-07-06T03:38:25;19.43;;;10.40;;
65831;SDS011;52593;42.648;23.332;2022-07-06T03:40:50;16.80;;;9.75;;
65831;SDS011;52593;42.648;23.332;2022-07-06T03:43:15;18.40;;;10.43;;
65831;SDS011;52593;42.648;23.332;2022-07-06T03:45:42;19.48;;;10.25;;
65831;SDS011;52593;42.648;23.332;2022-07-06T03:48:08;21.20;;;11.13;;
65831;SDS011;52593;42.648;23.332;2022-07-06T03:50:33;13.23;;;7.40;;
65831;SDS011;52593;42.648;23.332;2022-07-06T03:52:58;14.30;;;5.80;;
65831;SDS011;52593;42.648;23.332;2022-07-06T03:55:24;11.07;;;5.77;;
65831;SDS011;52593;42.648;23.332;2022-07-06T03:57:49;13.30;;;6.03;;
65831;SDS011;52593;42.648;23.332;2022-07-06T04:00:15;10.07;;;5.10;;
65831;SDS011;52593;42.648;23.332;2022-07-06T04:02:40;11.50;;;5.70;;
65831;SDS011;52593;42.648;23.332;2022-07-06T04:05:06;11.10;;;5.80;;
65831;SDS011;52593;42.648;23.332;2022-07-06T04:07:32;11.27;;;5.90;;
65831;SDS011;52593;42.648;23.332;2022-07-06T04:09:57;9.10;;;5.43;;
65831;SDS011;52593;42.648;23.332;2022-07-06T04:12:22;10.67;;;5.17;;
65831;SDS011;52593;42.648;23.332;2022-07-06T04:14:48;10.65;;;4.75;;
65831;SDS011;52593;42.648;23.332;2022-07-06T04:17:13;10.97;;;5.00;;
65831;SDS011;52593;42.648;23.332;2022-07-06T04:19:57;10.90;;;5.25;;
65831;SDS011;52593;42.648;23.332;2022-07-06T04:22:23;11.00;;;5.60;;
65831;SDS011;52593;42.648;23.332;2022-07-06T04:24:48;11.03;;;5.43;;
65831;SDS011;52593;42.648;23.332;2022-07-06T04:27:14;13.10;;;5.50;;
65831;SDS011;52593;42.648;23.332;2022-07-06T04:29:39;10.93;;;5.60;;
65831;SDS011;52593;42.648;23.332;2022-07-06T04:32:05;10.67;;;5.10;;
65831;SDS011;52593;42.648;23.332;2022-07-06T04:34:30;10.35;;;5.32;;
65831;SDS011;52593;42.648;23.332;2022-07-06T04:36:56;11.90;;;5.20;;
65831;SDS011;52593;42.648;23.332;2022-07-06T04:39:21;11.70;;;4.93;;
65831;SDS011;52593;42.648;23.332;2022-07-06T04:41:46;11.10;;;5.37;;
65831;SDS011;52593;42.648;23.332;2022-07-06T04:44:12;9.50;;;4.80;;
65831;SDS011;52593;42.648;23.332;2022-07-06T04:46:37;8.57;;;4.93;;
65831;SDS011;52593;42.648;23.332;2022-07-06T04:49:03;10.93;;;4.50;;
65831;SDS011;52593;42.648;23.332;2022-07-06T04:51:28;9.30;;;4.53;;
65831;SDS011;52593;42.648;23.332;2022-07-06T04:53:53;12.27;;;5.67;;
65831;SDS011;52593;42.648;23.332;2022-07-06T04:56:19;11.40;;;5.87;;
65831;SDS011;52593;42.648;23.332;2022-07-06T04:58:44;10.95;;;5.13;;
65831;SDS011;52593;42.648;23.332;2022-07-06T05:01:09;13.23;;;6.23;;
65831;SDS011;52593;42.648;23.332;2022-07-06T05:03:35;14.87;;;6.20;;
65831;SDS011;52593;42.648;23.332;2022-07-06T05:06:05;15.20;;;6.70;;
65831;SDS011;52593;42.648;23.332;2022-07-06T05:08:30;14.40;;;7.60;;
65831;SDS011;52593;42.648;23.332;2022-07-06T05:10:56;15.57;;;7.03;;
65831;SDS011;52593;42.648;23.332;2022-07-06T05:13:21;14.27;;;7.90;;
65831;SDS011;52593;42.648;23.332;2022-07-06T05:15:47;18.77;;;9.38;;
65831;SDS011;52593;42.648;23.332;2022-07-06T05:18:12;14.17;;;7.80;;
65831;SDS011;52593;42.648;23.332;2022-07-06T05:20:37;17.57;;;8.10;;
65831;SDS011;52593;42.648;23.332;2022-07-06T05:23:03;13.37;;;8.00;;
65831;SDS011;52593;42.648;23.332;2022-07-06T05:25:28;12.57;;;7.67;;
65831;SDS011;52593;42.648;23.332;2022-07-06T05:27:55;17.17;;;8.43;;
65831;SDS011;52593;42.648;23.332;2022-07-06T05:30:20;16.70;;;9.00;;
65831;SDS011;52593;42.648;23.332;2022-07-06T05:32:45;15.30;;;6.47;;
65831;SDS011;52593;42.648;23.332;2022-07-06T05:35:11;15.73;;;7.70;;
65831;SDS011;52593;42.648;23.332;2022-07-06T05:37:37;17.33;;;8.23;;
65831;SDS011;52593;42.648;23.332;2022-07-06T05:40:02;14.95;;;7.70;;
65831;SDS011;52593;42.648;23.332;2022-07-06T05:42:28;15.45;;;7.65;;
65831;SDS011;52593;42.648;23.332;2022-07-06T05:44:54;14.40;;;7.53;;
65831;SDS011;52593;42.648;23.332;2022-07-06T05:47:21;14.13;;;7.05;;
65831;SDS011;52593;42.648;23.332;2022-07-06T05:50:05;13.20;;;6.10;;
65831;SDS011;52593;42.648;23.332;2022-07-06T05:52:40;17.70;;;7.27;;
65831;SDS011;52593;42.648;23.332;2022-07-06T05:55:08;12.80;;;5.78;;
65831;SDS011;52593;42.648;23.332;2022-07-06T05:57:34;14.18;;;7.03;;
65831;SDS011;52593;42.648;23.332;2022-07-06T05:59:59;15.80;;;7.10;;
65831;SDS011;52593;42.648;23.332;2022-07-06T06:02:25;14.02;;;7.18;;
65831;SDS011;52593;42.648;23.332;2022-07-06T06:04:50;14.00;;;7.03;;
65831;SDS011;52593;42.648;23.332;2022-07-06T06:07:16;14.37;;;7.03;;
65831;SDS011;52593;42.648;23.332;2022-07-06T06:09:41;15.80;;;7.63;;
65831;SDS011;52593;42.648;23.332;2022-07-06T06:12:07;18.60;;;7.37;;
65831;SDS011;52593;42.648;23.332;2022-07-06T06:14:32;18.07;;;7.23;;
65831;SDS011;52593;42.648;23.332;2022-07-06T06:16:58;14.05;;;7.45;;
65831;SDS011;52593;42.648;23.332;2022-07-06T06:19:24;11.47;;;6.60;;
65831;SDS011;52593;42.648;23.332;2022-07-06T06:21:49;13.85;;;6.80;;
65831;SDS011;52593;42.648;23.332;2022-07-06T06:24:16;12.50;;;6.17;;
65831;SDS011;52593;42.648;23.332;2022-07-06T06:26:42;13.27;;;6.68;;
65831;SDS011;52593;42.648;23.332;2022-07-06T06:29:07;13.10;;;7.17;;
65831;SDS011;52593;42.648;23.332;2022-07-06T06:31:33;14.47;;;6.57;;
65831;SDS011;52593;42.648;23.332;2022-07-06T06:33:58;12.73;;;6.30;;
65831;SDS011;52593;42.648;23.332;2022-07-06T06:36:23;14.57;;;7.40;;
65831;SDS011;52593;42.648;23.332;2022-07-06T06:38:49;14.70;;;7.20;;
65831;SDS011;52593;42.648;23.332;2022-07-06T06:41:14;13.30;;;7.47;;
65831;SDS011;52593;42.648;23.332;2022-07-06T06:43:39;14.30;;;8.20;;
65831;SDS011;52593;42.648;23.332;2022-07-06T06:46:05;13.77;;;7.87;;
65831;SDS011;52593;42.648;23.332;2022-07-06T06:48:30;16.67;;;8.57;;
65831;SDS011;52593;42.648;23.332;2022-07-06T06:50:56;17.40;;;9.03;;
65831;SDS011;52593;42.648;23.332;2022-07-06T06:53:22;16.65;;;8.18;;
65831;SDS011;52593;42.648;23.332;2022-07-06T06:55:47;16.70;;;6.60;;
65831;SDS011;52593;42.648;23.332;2022-07-06T06:58:13;15.60;;;8.47;;
65831;SDS011;52593;42.648;23.332;2022-07-06T07:00:38;16.50;;;8.77;;
65831;SDS011;52593;42.648;23.332;2022-07-06T07:03:03;14.20;;;8.30;;
65831;SDS011;52593;42.648;23.332;2022-07-06T07:05:29;15.63;;;8.53;;
65831;SDS011;52593;42.648;23.332;2022-07-06T07:07:54;14.93;;;8.87;;
65831;SDS011;52593;42.648;23.332;2022-07-06T07:10:23;16.13;;;8.33;;
65831;SDS011;52593;42.648;23.332;2022-07-06T07:12:49;15.73;;;9.73;;
65831;SDS011;52593;42.648;23.332;2022-07-06T07:15:15;16.23;;;9.27;;
65831;SDS011;52593;42.648;23.332;2022-07-06T07:17:41;16.52;;;9.93;;
65831;SDS011;52593;42.648;23.332;2022-07-06T07:20:07;18.70;;;9.57;;
65831;SDS011;52593;42.648;23.332;2022-07-06T07:22:32;17.20;;;8.97;;
65831;SDS011;52593;42.648;23.332;2022-07-06T07:24:58;16.75;;;9.45;;
65831;SDS011;52593;42.648;23.332;2022-07-06T07:27:24;17.60;;;8.50;;
65831;SDS011;52593;42.648;23.332;2022-07-06T07:29:50;15.55;;;9.00;;
65831;SDS011;52593;42.648;23.332;2022-07-06T07:32:15;17.73;;;9.40;;
65831;SDS011;52593;42.648;23.332;2022-07-06T07:34:41;19.13;;;10.33;;
65831;SDS011;52593;42.648;23.332;2022-07-06T07:37:06;16.67;;;10.07;;
65831;SDS011;52593;42.648;23.332;2022-07-06T07:39:32;18.13;;;9.80;;
65831;SDS011;52593;42.648;23.332;2022-07-06T07:41:57;17.57;;;10.17;;
65831;SDS011;52593;42.648;23.332;2022-07-06T07:44:23;17.00;;;10.00;;
65831;SDS011;52593;42.648;23.332;2022-07-06T07:46:49;18.07;;;10.00;;
65831;SDS011;52593;42.648;23.332;2022-07-06T07:49:15;17.17;;;9.88;;
65831;SDS011;52593;42.648;23.332;2022-07-06T07:51:40;15.37;;;9.63;;
65831;SDS011;52593;42.648;23.332;2022-07-06T07:54:06;16.63;;;10.07;;
65831;SDS011;52593;42.648;23.332;2022-07-06T07:56:32;17.13;;;9.50;;
65831;SDS011;52593;42.648;23.332;2022-07-06T07:58:57;16.17;;;9.73;;
65831;SDS011;52593;42.648;23.332;2022-07-06T08:01:23;13.97;;;8.77;;
65831;SDS011;52593;42.648;23.332;2022-07-06T08:03:48;16.35;;;8.23;;
65831;SDS011;52593;42.648;23.332;2022-07-06T08:06:13;17.83;;;9.87;;
65831;SDS011;52593;42.648;23.332;2022-07-06T08:08:39;15.00;;;9.63;;
65831;SDS011;52593;42.648;23.332;2022-07-06T08:11:04;17.17;;;9.60;;
65831;SDS011;52593;42.648;23.332;2022-07-06T08:13:30;15.55;;;10.13;;
65831;SDS011;52593;42.648;23.332;2022-07-06T08:15:55;17.33;;;10.07;;
65831;SDS011;52593;42.648;23.332;2022-07-06T08:18:21;17.33;;;9.73;;
65831;SDS011;52593;42.648;23.332;2022-07-06T08:20:46;14.25;;;8.95;;
65831;SDS011;52593;42.648;23.332;2022-07-06T08:23:12;15.87;;;9.60;;
65831;SDS011;52593;42.648;23.332;2022-07-06T08:25:38;17.55;;;9.27;;
65831;SDS011;52593;42.648;23.332;2022-07-06T08:28:03;15.20;;;9.50;;
65831;SDS011;52593;42.648;23.332;2022-07-06T08:30:29;15.83;;;9.30;;
65831;SDS011;52593;42.648;23.332;2022-07-06T08:32:56;14.35;;;9.43;;
65831;SDS011;52593;42.648;23.332;2022-07-06T08:35:21;14.00;;;8.63;;
65831;SDS011;52593;42.648;23.332;2022-07-06T08:37:47;15.20;;;9.10;;
65831;SDS011;52593;42.648;23.332;2022-07-06T08:40:12;17.55;;;8.63;;
65831;SDS011;52593;42.648;23.332;2022-07-06T08:42:37;15.80;;;8.70;;
65831;SDS011;52593;42.648;23.332;2022-07-06T08:45:04;15.00;;;8.80;;
65831;SDS011;52593;42.648;23.332;2022-07-06T08:47:32;12.98;;;7.90;;
65831;SDS011;52593;42.648;23.332;2022-07-06T08:50:01;13.88;;;9.10;;
65831;SDS011;52593;42.648;23.332;2022-07-06T08:52:28;15.77;;;9.93;;
65831;SDS011;52593;42.648;23.332;2022-07-06T08:54:55;14.83;;;9.20;;
65831;SDS011;52593;42.648;23.332;2022-07-06T08:57:20;14.43;;;9.18;;
65831;SDS011;52593;42.648;23.332;2022-07-06T08:59:46;16.27;;;9.30;;
65831;SDS011;52593;42.648;23.332;2022-07-06T09:02:11;15.93;;;8.75;;
65831;SDS011;52593;42.648;23.332;2022-07-06T09:04:39;15.57;;;9.70;;
65831;SDS011;52593;42.648;23.332;2022-07-06T09:07:08;16.88;;;9.75;;
65831;SDS011;52593;42.648;23.332;2022-07-06T09:09:33;18.00;;;10.33;;
65831;SDS011;52593;42.648;23.332;2022-07-06T09:12:02;15.07;;;9.68;;
65831;SDS011;52593;42.648;23.332;2022-07-06T09:14:28;17.02;;;9.75;;
65831;SDS011;52593;42.648;23.332;2022-07-06T09:17:02;17.90;;;10.00;;
65831;SDS011;52593;42.648;23.332;2022-07-06T09:19:30;15.13;;;9.27;;
65831;SDS011;52593;42.648;23.332;2022-07-06T09:21:56;14.35;;;9.05;;
65831;SDS011;52593;42.648;23.332;2022-07-06T09:24:21;15.57;;;10.05;;
65831;SDS011;52593;42.648;23.332;2022-07-06T09:26:47;16.87;;;9.80;;
65831;SDS011;52593;42.648;23.332;2022-07-06T09:29:13;16.07;;;9.43;;
65831;SDS011;52593;42.648;23.332;2022-07-06T09:31:39;16.93;;;9.50;;
65831;SDS011;52593;42.648;23.332;2022-07-06T09:34:05;14.45;;;9.40;;
65831;SDS011;52593;42.648;23.332;2022-07-06T09:36:45;15.65;;;9.75;;
65831;SDS011;52593;42.648;23.332;2022-07-06T09:41:55;13.27;;;8.37;;
65831;SDS011;52593;42.648;23.332;2022-07-06T09:44:28;14.73;;;8.88;;
65831;SDS011;52593;42.648;23.332;2022-07-06T09:46:59;13.57;;;8.75;;
65831;SDS011;52593;42.648;23.332;2022-07-06T09:49:26;14.00;;;7.50;;
65831;SDS011;52593;42.648;23.332;2022-07-06T09:51:54;16.02;;;8.23;;
65831;SDS011;52593;42.648;23.332;2022-07-06T09:54:21;15.67;;;8.73;;
65831;SDS011;52593;42.648;23.332;2022-07-06T09:56:47;16.17;;;9.70;;
65831;SDS011;52593;42.648;23.332;2022-07-06T09:59:16;14.65;;;9.43;;
65831;SDS011;52593;42.648;23.332;2022-07-06T10:01:44;15.60;;;9.63;;
65831;SDS011;52593;42.648;23.332;2022-07-06T10:04:10;15.95;;;9.13;;
65831;SDS011;52593;42.648;23.332;2022-07-06T10:06:43;15.53;;;9.40;;
65831;SDS011;52593;42.648;23.332;2022-07-06T10:09:09;14.73;;;8.23;;
65831;SDS011;52593;42.648;23.332;2022-07-06T10:11:54;16.88;;;10.15;;
65831;SDS011;52593;42.648;23.332;2022-07-06T10:14:25;16.33;;;10.25;;
65831;SDS011;52593;42.648;23.332;2022-07-06T10:16:53;15.83;;;9.63;;
65831;SDS011;52593;42.648;23.332;2022-07-06T10:19:21;15.90;;;10.07;;
65831;SDS011;52593;42.648;23.332;2022-07-06T10:21:47;15.32;;;10.13;;
65831;SDS011;52593;42.648;23.332;2022-07-06T10:24:13;15.02;;;9.57;;
65831;SDS011;52593;42.648;23.332;2022-07-06T10:26:40;14.93;;;10.07;;
65831;SDS011;52593;42.648;23.332;2022-07-06T10:29:06;15.25;;;8.00;;
65831;SDS011;52593;42.648;23.332;2022-07-06T10:31:32;15.32;;;9.02;;
65831;SDS011;52593;42.648;23.332;2022-07-06T10:34:00;18.55;;;9.55;;
65831;SDS011;52593;42.648;23.332;2022-07-06T10:36:27;17.73;;;9.60;;
65831;SDS011;52593;42.648;23.332;2022-07-06T10:38:53;22.73;;;9.07;;
65831;SDS011;52593;42.648;23.332;2022-07-06T10:41:18;18.17;;;10.80;;
65831;SDS011;52593;42.648;23.332;2022-07-06T10:43:56;18.00;;;11.00;;
65831;SDS011;52593;42.648;23.332;2022-07-06T10:46:23;15.63;;;8.53;;
65831;SDS011;52593;42.648;23.332;2022-07-06T10:48:52;17.17;;;9.20;;
65831;SDS011;52593;42.648;23.332;2022-07-06T10:51:23;16.15;;;10.63;;
65831;SDS011;52593;42.648;23.332;2022-07-06T10:53:56;16.67;;;9.30;;
65831;SDS011;52593;42.648;23.332;2022-07-06T10:56:39;16.88;;;9.55;;
65831;SDS011;52593;42.648;23.332;2022-07-06T10:59:16;17.47;;;8.37;;
65831;SDS011;52593;42.648;23.332;2022-07-06T11:02:10;13.10;;;7.93;;
65831;SDS011;52593;42.648;23.332;2022-07-06T11:04:45;14.55;;;7.63;;
65831;SDS011;52593;42.648;23.332;2022-07-06T11:07:15;16.38;;;9.93;;
65831;SDS011;52593;42.648;23.332;2022-07-06T11:10:01;17.58;;;10.60;;
65831;SDS011;52593;42.648;23.332;2022-07-06T11:12:27;15.23;;;10.33;;
65831;SDS011;52593;42.648;23.332;2022-07-06T11:14:52;18.90;;;11.15;;
65831;SDS011;52593;42.648;23.332;2022-07-06T11:17:19;16.63;;;10.67;;
65831;SDS011;52593;42.648;23.332;2022-07-06T11:19:49;16.27;;;10.32;;
65831;SDS011;52593;42.648;23.332;2022-07-06T11:22:16;14.50;;;8.95;;
65831;SDS011;52593;42.648;23.332;2022-07-06T11:24:44;16.10;;;10.23;;
65831;SDS011;52593;42.648;23.332;2022-07-06T11:27:10;14.65;;;9.95;;
65831;SDS011;52593;42.648;23.332;2022-07-06T11:29:35;18.00;;;11.03;;
65831;SDS011;52593;42.648;23.332;2022-07-06T11:32:04;16.88;;;11.50;;
65831;SDS011;52593;42.648;23.332;2022-07-06T11:34:34;16.83;;;11.25;;
65831;SDS011;52593;42.648;23.332;2022-07-06T11:37:06;12.95;;;7.72;;
65831;SDS011;52593;42.648;23.332;2022-07-06T11:39:35;13.80;;;9.00;;
65831;SDS011;52593;42.648;23.332;2022-07-06T11:42:02;15.70;;;9.53;;
65831;SDS011;52593;42.648;23.332;2022-07-06T11:44:31;16.67;;;9.45;;
65831;SDS011;52593;42.648;23.332;2022-07-06T11:46:57;14.00;;;8.48;;
65831;SDS011;52593;42.648;23.332;2022-07-06T11:49:25;18.85;;;8.98;;
65831;SDS011;52593;42.648;23.332;2022-07-06T11:51:51;14.43;;;9.25;;
65831;SDS011;52593;42.648;23.332;2022-07-06T11:54:18;25.10;;;11.53;;
65831;SDS011;52593;42.648;23.332;2022-07-06T11:56:51;19.40;;;8.57;;
65831;SDS011;52593;42.648;23.332;2022-07-06T11:59:34;14.00;;;8.60;;
65831;SDS011;52593;42.648;23.332;2022-07-06T12:02:08;14.93;;;8.30;;
65831;SDS011;52593;42.648;23.332;2022-07-06T12:04:38;16.00;;;10.50;;
65831;SDS011;52593;42.648;23.332;2022-07-06T12:07:10;14.65;;;9.52;;
65831;SDS011;52593;42.648;23.332;2022-07-06T12:09:45;13.88;;;9.07;;
65831;SDS011;52593;42.648;23.332;2022-07-06T12:12:12;15.10;;;8.07;;
65831;SDS011;52593;42.648;23.332;2022-07-06T12:14:39;14.10;;;8.17;;
65831;SDS011;52593;42.648;23.332;2022-07-06T12:17:07;14.25;;;9.57;;
65831;SDS011;52593;42.648;23.332;2022-07-06T12:19:34;12.65;;;8.35;;
65831;SDS011;52593;42.648;23.332;2022-07-06T12:22:00;15.88;;;9.57;;
65831;SDS011;52593;42.648;23.332;2022-07-06T12:24:29;16.60;;;9.15;;
65831;SDS011;52593;42.648;23.332;2022-07-06T12:26:56;14.67;;;9.70;;
65831;SDS011;52593;42.648;23.332;2022-07-06T12:29:22;14.93;;;9.45;;
65831;SDS011;52593;42.648;23.332;2022-07-06T12:31:54;16.67;;;10.15;;
65831;SDS011;52593;42.648;23.332;2022-07-06T12:34:24;13.13;;;8.20;;
65831;SDS011;52593;42.648;23.332;2022-07-06T12:36:52;11.40;;;7.15;;
65831;SDS011;52593;42.648;23.332;2022-07-06T12:39:22;15.05;;;8.75;;
65831;SDS011;52593;42.648;23.332;2022-07-06T12:41:50;10.93;;;7.68;;
65831;SDS011;52593;42.648;23.332;2022-07-06T12:44:17;13.27;;;8.70;;
65831;SDS011;52593;42.648;23.332;2022-07-06T12:46:47;12.00;;;8.30;;
65831;SDS011;52593;42.648;23.332;2022-07-06T12:49:19;13.95;;;9.07;;
65831;SDS011;52593;42.648;23.332;2022-07-06T12:51:56;11.00;;;7.18;;
65831;SDS011;52593;42.648;23.332;2022-07-06T12:54:41;13.88;;;7.57;;
65831;SDS011;52593;42.648;23.332;2022-07-06T12:57:15;12.82;;;8.10;;
65831;SDS011;52593;42.648;23.332;2022-07-06T13:07:26;8.63;;;5.85;;
65831;SDS011;52593;42.648;23.332;2022-07-06T13:09:53;10.57;;;7.07;;
65831;SDS011;52593;42.648;23.332;2022-07-06T13:12:20;12.50;;;7.43;;
65831;SDS011;52593;42.648;23.332;2022-07-06T13:14:46;9.95;;;5.88;;
65831;SDS011;52593;42.648;23.332;2022-07-06T13:17:12;10.80;;;7.30;;
65831;SDS011;52593;42.648;23.332;2022-07-06T13:19:38;9.50;;;5.80;;
65831;SDS011;52593;42.648;23.332;2022-07-06T13:22:03;10.27;;;6.00;;
65831;SDS011;52593;42.648;23.332;2022-07-06T13:24:29;11.70;;;7.20;;
65831;SDS011;52593;42.648;23.332;2022-07-06T13:26:55;9.47;;;5.80;;
65831;SDS011;52593;42.648;23.332;2022-07-06T13:29:21;8.60;;;5.40;;
65831;SDS011;52593;42.648;23.332;2022-07-06T13:31:47;8.50;;;5.15;;
65831;SDS011;52593;42.648;23.332;2022-07-06T13:34:12;8.77;;;5.37;;
65831;SDS011;52593;42.648;23.332;2022-07-06T13:36:38;7.85;;;5.10;;
65831;SDS011;52593;42.648;23.332;2022-07-06T13:39:05;6.47;;;3.80;;
65831;SDS011;52593;42.648;23.332;2022-07-06T13:41:31;8.70;;;4.93;;
65831;SDS011;52593;42.648;23.332;2022-07-06T13:43:57;7.78;;;4.32;;
65831;SDS011;52593;42.648;23.332;2022-07-06T13:46:23;7.50;;;4.90;;
65831;SDS011;52593;42.648;23.332;2022-07-06T13:48:49;7.60;;;4.30;;
65831;SDS011;52593;42.648;23.332;2022-07-06T13:51:14;7.57;;;4.67;;
65831;SDS011;52593;42.648;23.332;2022-07-06T13:53:40;5.93;;;3.78;;
65831;SDS011;52593;42.648;23.332;2022-07-06T13:56:06;7.40;;;3.87;;
65831;SDS011;52593;42.648;23.332;2022-07-06T13:58:33;7.18;;;3.42;;
65831;SDS011;52593;42.648;23.332;2022-07-06T14:00:58;5.57;;;2.97;;
65831;SDS011;52593;42.648;23.332;2022-07-06T14:03:24;6.82;;;3.28;;
65831;SDS011;52593;42.648;23.332;2022-07-06T14:05:54;7.15;;;3.50;;
65831;SDS011;52593;42.648;23.332;2022-07-06T14:08:24;4.87;;;2.93;;
65831;SDS011;52593;42.648;23.332;2022-07-06T14:10:51;5.13;;;2.72;;
65831;SDS011;52593;42.648;23.332;2022-07-06T14:13:17;6.13;;;3.13;;
65831;SDS011;52593;42.648;23.332;2022-07-06T14:15:43;6.32;;;3.10;;
65831;SDS011;52593;42.648;23.332;2022-07-06T14:18:09;5.50;;;3.20;;
65831;SDS011;52593;42.648;23.332;2022-07-06T14:20:34;6.00;;;3.10;;
65831;SDS011;52593;42.648;23.332;2022-07-06T14:23:00;4.20;;;2.40;;
65831;SDS011;52593;42.648;23.332;2022-07-06T14:25:25;6.32;;;3.00;;
65831;SDS011;52593;42.648;23.332;2022-07-06T14:27:50;7.37;;;2.53;;